createdAt,value
2019-04-21T00:01:05.038Z,13.17
2019-04-21T00:03:35.556Z,12.17
2019-04-21T00:06:15.692Z,10.77
2019-04-21T00:08:50.489Z,11.00
2019-04-21T00:13:42.725Z,12.50
2019-04-21T00:16:00.264Z,13.87
2019-04-21T00:19:00.851Z,16.07
2019-04-21T00:21:31.262Z,15.43
2019-04-21T00:24:23.995Z,14.60
2019-04-21T00:27:05.233Z,14.20
2019-04-21T00:29:36.715Z,15.47
2019-04-21T00:31:58.872Z,13.40
2019-04-21T00:34:13.277Z,13.20
2019-04-21T00:36:54.875Z,12.67
2019-04-21T00:39:45.073Z,12.00
2019-04-21T00:42:00.946Z,11.23
2019-04-21T00:44:24.490Z,10.50
2019-04-21T00:46:58.131Z,10.07
2019-04-21T00:49:27.133Z,10.37
2019-04-21T00:55:14.146Z,10.53
2019-04-21T00:57:38.747Z,8.70
2019-04-21T00:59:59.549Z,9.13
2019-04-21T01:02:36.721Z,9.33
2019-04-21T01:05:06.432Z,9.17
2019-04-21T01:07:31.396Z,8.80
2019-04-21T01:09:48.599Z,8.03
2019-04-21T01:12:26.895Z,7.37
2019-04-21T01:15:04.846Z,7.00
2019-04-21T01:17:27.657Z,7.63
2019-04-21T01:19:51.198Z,7.30
2019-04-21T01:22:04.888Z,7.90
2019-04-21T01:24:36.181Z,7.97
2019-04-21T01:27:10.032Z,7.37
2019-04-21T01:29:58.334Z,7.47
2019-04-21T01:32:24.243Z,7.77
2019-04-21T01:34:56.107Z,8.57
2019-04-21T01:37:21.202Z,10.70
2019-04-21T01:39:53.297Z,10.37
2019-04-21T01:42:24.180Z,8.63
2019-04-21T01:44:50.006Z,6.67
2019-04-21T01:47:10.249Z,7.83
2019-04-21T01:49:39.511Z,7.13
2019-04-21T01:52:24.845Z,6.60
2019-04-21T01:55:08.316Z,7.40
2019-04-21T01:57:54.024Z,7.67
2019-04-21T02:00:32.658Z,7.17
2019-04-21T02:03:12.912Z,7.50
2019-04-21T02:05:40.897Z,7.57
2019-04-21T02:08:03.643Z,6.80
2019-04-21T02:10:40.435Z,7.27
2019-04-21T02:13:03.645Z,8.53
2019-04-21T02:15:39.083Z,7.23
2019-04-21T02:18:04.622Z,6.43
2019-04-21T02:20:21.834Z,6.93
2019-04-21T02:23:23.019Z,6.93
2019-04-21T02:25:31.842Z,7.73
2019-04-21T02:28:03.697Z,7.40
2019-04-21T02:30:45.600Z,7.03
2019-04-21T02:33:16.923Z,8.53
2019-04-21T02:36:00.642Z,7.67
2019-04-21T02:38:09.042Z,7.63
2019-04-21T02:40:46.607Z,7.97
2019-04-21T02:43:11.227Z,7.57
2019-04-21T02:45:39.385Z,7.83
2019-04-21T02:48:08.837Z,6.97
2019-04-21T02:50:38.127Z,7.50
2019-04-21T02:53:14.047Z,7.63
2019-04-21T02:55:42.026Z,6.57
2019-04-21T03:01:08.050Z,7.97
2019-04-21T03:04:02.627Z,7.90
2019-04-21T03:06:29.100Z,7.40
2019-04-21T03:09:03.354Z,9.27
2019-04-21T03:11:25.235Z,10.53
2019-04-21T03:14:05.560Z,13.87
2019-04-21T03:16:31.110Z,14.23
2019-04-21T03:18:57.133Z,13.60
2019-04-21T03:21:33.963Z,13.73
2019-04-21T03:23:58.362Z,14.40
2019-04-21T03:28:52.170Z,12.20
2019-04-21T03:31:50.840Z,12.93
2019-04-21T03:34:28.958Z,13.53
2019-04-21T03:38:47.303Z,13.20
2019-04-21T03:41:18.870Z,15.43
2019-04-21T03:43:50.100Z,13.13
2019-04-21T03:46:23.212Z,11.77
2019-04-21T03:51:21.380Z,14.77
2019-04-21T03:53:45.935Z,14.97
2019-04-21T03:56:44.827Z,13.90
2019-04-21T04:01:44.507Z,15.33
2019-04-21T04:07:06.079Z,15.23
2019-04-21T04:09:52.235Z,14.87
2019-04-21T04:12:02.700Z,14.20
2019-04-21T04:14:42.365Z,15.23
2019-04-21T04:22:15.171Z,15.83
2019-04-21T04:27:05.093Z,15.43
2019-04-21T04:31:58.785Z,15.80
2019-04-21T04:34:40.876Z,17.20
2019-04-21T04:37:21.467Z,17.10
2019-04-21T04:40:10.635Z,17.50
2019-04-21T04:45:18.049Z,17.77
2019-04-21T04:47:33.394Z,15.73
2019-04-21T04:50:26.290Z,16.13
2019-04-21T04:53:01.940Z,16.37
2019-04-21T04:55:08.137Z,16.37
2019-04-21T04:57:49.073Z,17.40
2019-04-21T05:00:15.693Z,16.97
2019-04-21T05:05:15.334Z,16.33
2019-04-21T05:10:18.012Z,14.33
2019-04-21T05:12:29.270Z,13.80
2019-04-21T05:15:04.158Z,14.73
2019-04-21T05:17:43.237Z,12.60
2019-04-21T05:24:44.167Z,13.43
2019-04-21T05:27:36.526Z,13.60
2019-04-21T05:30:07.223Z,14.60
2019-04-21T05:33:07.101Z,13.03
2019-04-21T05:35:49.326Z,14.93
2019-04-21T05:38:28.855Z,15.33
2019-04-21T05:40:55.175Z,14.73
2019-04-21T05:43:32.451Z,15.63
2019-04-21T05:46:10.431Z,18.07
2019-04-21T05:48:43.704Z,20.03
2019-04-21T05:51:10.630Z,21.70
2019-04-21T05:53:44.030Z,19.57
2019-04-21T05:56:10.047Z,19.93
2019-04-21T05:58:43.581Z,18.30
2019-04-21T06:03:54.846Z,18.00
2019-04-21T06:08:46.941Z,16.27
2019-04-21T06:11:13.117Z,16.70
2019-04-21T06:16:07.424Z,15.33
2019-04-21T06:21:09.833Z,14.23
2019-04-21T06:23:55.521Z,14.00
2019-04-21T06:28:40.156Z,15.20
2019-04-21T06:31:12.676Z,14.50
2019-04-21T06:33:44.797Z,13.57
2019-04-21T06:36:39.645Z,12.03
2019-04-21T06:41:32.561Z,13.40
2019-04-21T06:44:29.686Z,12.93
2019-04-21T06:46:34.997Z,13.63
2019-04-21T06:51:29.541Z,13.23
2019-04-21T06:54:03.516Z,13.93
2019-04-21T06:56:30.965Z,13.33
2019-04-21T06:58:58.776Z,14.47
2019-04-21T07:01:34.636Z,15.67
2019-04-21T07:04:05.725Z,16.47
2019-04-21T07:06:32.466Z,16.53
2019-04-21T07:09:02.501Z,15.50
2019-04-21T07:11:21.692Z,15.13
2019-04-21T07:14:04.078Z,14.57
2019-04-21T07:16:25.706Z,13.63
2019-04-21T07:19:01.068Z,14.03
2019-04-21T07:21:20.707Z,15.40
2019-04-21T07:23:53.865Z,14.50
2019-04-21T07:26:22.524Z,15.30
2019-04-21T07:28:56.327Z,14.87
2019-04-21T07:31:17.863Z,14.90
2019-04-21T07:36:21.873Z,16.47
2019-04-21T07:38:45.838Z,14.77
2019-04-21T07:41:09.269Z,13.90
2019-04-21T07:43:41.285Z,14.60
2019-04-21T07:46:10.614Z,13.60
2019-04-21T07:48:49.759Z,13.93
2019-04-21T07:51:45.635Z,12.77
2019-04-21T07:54:18.240Z,12.77
2019-04-21T07:56:28.313Z,14.03
2019-04-21T07:59:10.043Z,14.07
2019-04-21T08:01:48.259Z,13.80
2019-04-21T08:04:34.659Z,14.40
2019-04-21T08:06:46.579Z,14.33
2019-04-21T08:09:12.390Z,15.47
2019-04-21T08:11:39.636Z,12.23
2019-04-21T08:14:06.914Z,14.80
2019-04-21T08:16:48.629Z,14.67
2019-04-21T08:19:12.871Z,13.40
2019-04-21T08:21:44.692Z,12.50
2019-04-21T08:24:12.695Z,10.97
2019-04-21T08:26:46.286Z,11.90
2019-04-21T08:29:20.689Z,11.20
2019-04-21T08:31:51.658Z,11.50
2019-04-21T08:36:33.957Z,10.27
2019-04-21T08:39:06.510Z,7.83
2019-04-21T08:41:36.204Z,8.97
2019-04-21T08:44:06.946Z,8.70
2019-04-21T08:46:44.676Z,7.97
2019-04-21T08:49:10.873Z,8.17
2019-04-21T08:51:55.828Z,8.30
2019-04-21T08:54:11.429Z,6.90
2019-04-21T08:57:07.821Z,7.00
2019-04-21T09:00:04.930Z,4.97
2019-04-21T09:02:57.409Z,5.40
2019-04-21T09:05:17.646Z,5.70
2019-04-21T09:07:55.366Z,5.90
2019-04-21T09:10:17.301Z,5.93
2019-04-21T09:12:46.703Z,4.50
2019-04-21T09:15:21.649Z,4.33
2019-04-21T09:17:41.107Z,4.47
2019-04-21T09:20:25.114Z,4.30
2019-04-21T09:22:52.558Z,5.03
2019-04-21T09:25:19.957Z,4.77
2019-04-21T09:27:51.775Z,4.70
2019-04-21T09:30:03.425Z,4.53
2019-04-21T09:32:32.992Z,5.00
2019-04-21T09:35:05.652Z,3.90
2019-04-21T09:37:39.553Z,3.50
2019-04-21T09:39:59.108Z,3.67
2019-04-21T09:42:36.049Z,4.10
2019-04-21T09:45:00.580Z,3.50
2019-04-21T09:47:35.109Z,3.53
2019-04-21T09:49:56.281Z,4.57
2019-04-21T09:52:29.338Z,3.37
2019-04-21T09:55:02.099Z,3.93
2019-04-21T09:57:35.047Z,3.50
2019-04-21T10:00:04.088Z,3.13
2019-04-21T10:02:34.284Z,3.50
2019-04-21T10:04:51.249Z,3.30
2019-04-21T10:07:27.501Z,4.27
2019-04-21T10:09:50.007Z,3.80
2019-04-21T10:12:17.558Z,4.27
2019-04-21T10:14:45.472Z,4.20
2019-04-21T10:17:22.338Z,3.50
2019-04-21T10:19:50.659Z,4.03
2019-04-21T10:22:18.981Z,3.40
2019-04-21T10:24:46.798Z,3.30
2019-04-21T10:27:14.842Z,4.33
2019-04-21T10:29:43.534Z,3.37
2019-04-21T10:32:11.656Z,2.97
2019-04-21T10:34:41.105Z,3.43
2019-04-21T10:37:09.123Z,3.90
2019-04-21T10:39:37.818Z,3.00
2019-04-21T10:42:05.687Z,3.60
2019-04-21T10:44:34.627Z,4.50
2019-04-21T10:47:02.665Z,4.53
2019-04-21T10:49:32.765Z,4.50
2019-04-21T10:52:04.602Z,3.77
2019-04-21T10:54:56.754Z,5.60
2019-04-21T10:57:04.300Z,3.60
2019-04-21T11:02:49.161Z,3.80
2019-04-21T11:05:20.748Z,3.40
2019-04-21T11:08:07.854Z,3.97
2019-04-21T11:10:27.802Z,4.07
2019-04-21T11:12:58.738Z,3.73
2019-04-21T11:15:29.473Z,3.57
2019-04-21T11:18:00.115Z,4.03
2019-04-21T11:20:30.996Z,2.80
2019-04-21T11:23:01.863Z,3.70
2019-04-21T11:25:33.714Z,3.60
2019-04-21T11:28:05.113Z,3.60
2019-04-21T11:30:35.875Z,3.50
2019-04-21T11:33:07.057Z,3.57
2019-04-21T11:35:37.668Z,3.53
2019-04-21T11:38:17.972Z,5.27
2019-04-21T11:40:43.731Z,7.50
2019-04-21T11:43:15.656Z,12.07
2019-04-21T11:45:46.495Z,3.40
2019-04-21T11:48:28.191Z,3.40
2019-04-21T11:50:59.283Z,3.60
2019-04-21T11:53:30.762Z,5.83
2019-04-21T11:56:01.180Z,5.70
2019-04-21T11:58:31.954Z,4.00
2019-04-21T12:01:03.449Z,3.90
2019-04-21T12:03:34.010Z,3.27
2019-04-21T12:06:05.763Z,3.73
2019-04-21T12:08:41.265Z,4.23
2019-04-21T12:11:09.430Z,4.00
2019-04-21T12:13:40.419Z,3.53
2019-04-21T12:16:12.876Z,4.23
2019-04-21T12:18:43.332Z,3.97
2019-04-21T12:21:14.110Z,3.87
2019-04-21T12:23:44.800Z,3.50
2019-04-21T12:26:15.950Z,3.97
2019-04-21T12:28:47.905Z,3.77
2019-04-21T12:31:55.723Z,4.00
2019-04-21T12:34:26.067Z,4.03
2019-04-21T12:36:57.053Z,3.73
2019-04-21T12:39:27.461Z,3.50
2019-04-21T12:41:58.491Z,4.23
2019-04-21T12:44:29.528Z,4.00
2019-04-21T12:46:59.956Z,4.10
2019-04-21T12:49:31.801Z,3.30
2019-04-21T12:52:03.787Z,4.07
2019-04-21T12:54:35.451Z,3.83
2019-04-21T12:57:07.576Z,4.00
2019-04-21T12:59:39.605Z,3.80
2019-04-21T13:02:10.045Z,4.07
2019-04-21T13:04:41.779Z,4.80
2019-04-21T13:07:13.269Z,4.37
2019-04-21T13:09:44.295Z,4.50
2019-04-21T13:12:15.219Z,3.77
2019-04-21T13:14:45.918Z,4.07
2019-04-21T13:17:17.294Z,3.73
2019-04-21T13:19:47.671Z,3.43
2019-04-21T13:22:18.362Z,3.73
2019-04-21T13:24:49.635Z,4.13
2019-04-21T13:27:20.649Z,4.17
2019-04-21T13:29:52.534Z,3.90
2019-04-21T13:32:23.192Z,4.40
2019-04-21T13:34:54.972Z,3.93
2019-04-21T13:37:25.705Z,3.93
2019-04-21T13:40:31.218Z,3.97
2019-04-21T13:42:49.636Z,3.83
2019-04-21T13:45:18.357Z,4.00
2019-04-21T13:47:48.780Z,3.60
2019-04-21T13:50:19.600Z,3.87
2019-04-21T13:52:51.132Z,3.60
2019-04-21T13:55:21.583Z,3.90
2019-04-21T13:57:52.587Z,4.00
2019-04-21T14:00:24.123Z,4.20
2019-04-21T14:02:54.670Z,3.80
2019-04-21T14:05:26.488Z,4.50
2019-04-21T14:07:58.055Z,4.47
2019-04-21T14:10:29.257Z,4.30
2019-04-21T14:13:00.471Z,4.57
2019-04-21T14:15:32.438Z,4.20
2019-04-21T14:18:02.976Z,3.67
2019-04-21T14:20:33.473Z,4.10
2019-04-21T14:23:15.612Z,4.40
2019-04-21T14:25:37.536Z,4.20
2019-04-21T14:28:08.328Z,4.17
2019-04-21T14:30:38.850Z,3.97
2019-04-21T14:33:10.021Z,4.37
2019-04-21T14:35:41.108Z,4.10
2019-04-21T14:38:11.642Z,4.20
2019-04-21T14:40:42.090Z,3.60
2019-04-21T14:43:14.289Z,4.55
2019-04-21T14:46:03.935Z,3.70
2019-04-21T14:49:03.567Z,4.03
2019-04-21T14:51:45.440Z,4.10
2019-04-21T14:54:40.468Z,4.10
2019-04-21T14:57:11.529Z,3.87
2019-04-21T14:59:42.838Z,4.12
2019-04-21T15:02:14.055Z,4.12
2019-04-21T15:04:45.911Z,3.67
2019-04-21T15:07:17.100Z,4.42
2019-04-21T15:09:58.802Z,4.20
2019-04-21T15:12:20.955Z,4.20
2019-04-21T15:14:51.917Z,4.70
2019-04-21T15:17:24.119Z,5.05
2019-04-21T15:20:01.921Z,4.03
2019-04-21T15:22:26.464Z,5.05
2019-04-21T15:24:58.493Z,4.60
2019-04-21T15:27:29.022Z,4.12
2019-04-21T15:30:00.562Z,4.25
2019-04-21T15:32:32.587Z,4.42
2019-04-21T15:35:04.060Z,3.70
2019-04-21T15:37:35.746Z,5.22
2019-04-21T15:40:18.209Z,4.55
2019-04-21T15:42:40.298Z,3.90
2019-04-21T15:45:10.678Z,5.58
2019-04-21T15:47:42.123Z,4.37
2019-04-21T15:50:17.304Z,4.77
2019-04-21T15:52:45.659Z,4.40
2019-04-21T15:55:36.999Z,4.10
2019-04-21T15:58:32.504Z,4.57
2019-04-21T16:01:16.591Z,5.40
2019-04-21T16:03:49.006Z,3.70
2019-04-21T16:06:19.493Z,4.30
2019-04-21T16:08:55.214Z,4.50
2019-04-21T16:11:24.022Z,5.53
2019-04-21T16:13:55.475Z,6.20
2019-04-21T16:16:29.094Z,6.10
2019-04-21T16:19:00.410Z,4.77
2019-04-21T16:21:31.795Z,6.07
2019-04-21T16:24:04.496Z,5.80
2019-04-21T16:26:35.568Z,5.00
2019-04-21T16:29:07.167Z,5.07
2019-04-21T16:31:38.340Z,5.00
2019-04-21T16:34:09.285Z,5.00
2019-04-21T16:36:39.811Z,4.92
2019-04-21T16:39:11.481Z,4.85
2019-04-21T16:41:42.501Z,6.25
2019-04-21T16:44:13.448Z,8.03
2019-04-21T16:46:45.447Z,6.50
2019-04-21T16:49:17.879Z,5.85
2019-04-21T16:51:50.103Z,5.12
2019-04-21T16:54:28.895Z,5.22
2019-04-21T16:57:10.118Z,4.97
2019-04-21T16:59:56.536Z,5.60
2019-04-21T17:02:28.390Z,5.90
2019-04-21T17:04:58.730Z,6.90
2019-04-21T17:07:30.372Z,6.13
2019-04-21T17:10:02.558Z,6.57
2019-04-21T17:12:33.048Z,6.33
2019-04-21T17:16:24.411Z,7.40
2019-04-21T17:17:59.082Z,6.80
2019-04-21T17:20:19.227Z,7.33
2019-04-21T17:22:41.740Z,6.03
2019-04-21T17:25:14.117Z,6.93
2019-04-21T17:27:44.911Z,6.43
2019-04-21T17:30:17.147Z,7.93
2019-04-21T17:32:49.862Z,8.63
2019-04-21T17:35:21.117Z,7.83
2019-04-21T17:37:52.106Z,10.63
2019-04-21T17:40:26.356Z,8.83
2019-04-21T17:43:02.055Z,7.03
2019-04-21T17:45:29.203Z,9.33
2019-04-21T17:48:05.147Z,12.47
2019-04-21T17:50:57.082Z,8.43
2019-04-21T17:53:42.940Z,9.50
2019-04-21T17:56:32.977Z,11.53
2019-04-21T17:59:01.752Z,12.80
2019-04-21T18:01:40.739Z,13.70
2019-04-21T18:04:12.630Z,13.20
2019-04-21T18:06:50.191Z,15.53
2019-04-21T18:09:29.533Z,18.47
2019-04-21T18:12:01.913Z,21.57
2019-04-21T18:14:13.720Z,24.57
2019-04-21T18:16:47.881Z,23.53
2019-04-21T18:19:19.420Z,22.70
2019-04-21T18:22:19.730Z,22.20
2019-04-21T18:24:59.098Z,24.13
2019-04-21T18:27:26.395Z,23.67
2019-04-21T18:29:59.979Z,22.20
2019-04-21T18:32:35.297Z,19.73
2019-04-21T18:35:19.175Z,25.87
2019-04-21T18:38:03.475Z,40.93
2019-04-21T18:40:33.005Z,49.80
2019-04-21T18:43:44.785Z,39.63
2019-04-21T18:46:22.866Z,34.20
2019-04-21T18:48:40.971Z,50.07
2019-04-21T18:51:35.845Z,23.07
2019-04-21T18:54:20.980Z,22.43
2019-04-21T18:56:31.717Z,19.77
2019-04-21T18:59:02.579Z,22.13
2019-04-21T19:01:35.214Z,18.87
2019-04-21T19:04:13.401Z,20.60
2019-04-21T19:06:54.624Z,20.60
2019-04-21T19:09:44.556Z,21.00
2019-04-21T19:12:04.809Z,18.90
2019-04-21T19:14:37.392Z,19.77
2019-04-21T19:17:39.659Z,20.73
2019-04-21T19:19:44.220Z,19.10
2019-04-21T19:22:09.128Z,14.93
2019-04-21T19:24:48.681Z,14.63
2019-04-21T19:27:20.873Z,13.30
2019-04-21T19:29:58.349Z,15.17
2019-04-21T19:34:40.885Z,15.50
2019-04-21T19:37:14.998Z,13.67
2019-04-21T19:39:56.163Z,13.93
2019-04-21T19:42:25.698Z,13.33
2019-04-21T19:44:59.228Z,14.53
2019-04-21T19:47:41.494Z,14.03
2019-04-21T19:50:10.840Z,13.53
2019-04-21T19:52:34.541Z,11.27
2019-04-21T19:54:56.777Z,13.93
2019-04-21T19:57:29.152Z,14.83
2019-04-21T20:00:03.698Z,15.23
2019-04-21T20:02:32.607Z,13.60
2019-04-21T20:05:07.944Z,11.87
2019-04-21T20:07:49.748Z,11.13
2019-04-21T20:10:33.245Z,10.83
2019-04-21T20:13:02.910Z,12.73
2019-04-21T20:15:36.113Z,11.50
2019-04-21T20:17:58.846Z,10.57
2019-04-21T20:20:19.288Z,9.30
2019-04-21T20:22:51.880Z,9.13
2019-04-21T20:25:23.687Z,8.63
2019-04-21T20:28:03.752Z,7.33
2019-04-21T20:30:42.571Z,6.73
2019-04-21T20:38:16.029Z,7.90
2019-04-21T20:40:45.729Z,6.30
2019-04-21T20:43:28.484Z,6.53
2019-04-21T20:48:25.252Z,8.27
2019-04-21T20:51:06.653Z,7.73
2019-04-21T20:53:33.027Z,6.50
2019-04-21T20:56:03.446Z,8.60
2019-04-21T20:58:40.890Z,10.60
2019-04-21T21:03:45.183Z,10.43
2019-04-21T21:06:10.921Z,14.23
2019-04-21T21:08:49.893Z,9.57
2019-04-21T21:11:21.324Z,12.87
2019-04-21T21:13:53.688Z,12.27
2019-04-21T21:16:45.058Z,13.50
2019-04-21T21:21:30.082Z,16.00
2019-04-21T21:24:03.487Z,12.40
2019-04-21T21:26:38.128Z,13.97
2019-04-21T21:28:57.465Z,9.83
2019-04-21T21:31:41.488Z,9.40
2019-04-21T21:34:17.580Z,9.47
2019-04-21T21:36:51.107Z,10.07
2019-04-21T21:39:15.538Z,15.87
2019-04-21T21:41:38.560Z,12.43
2019-04-21T21:44:12.729Z,12.07
2019-04-21T21:46:51.744Z,11.00
2019-04-21T21:49:27.969Z,12.40
2019-04-21T21:51:56.925Z,11.57
2019-04-21T21:54:15.964Z,11.30
2019-04-21T21:56:46.800Z,11.27
2019-04-21T21:59:22.812Z,11.07
2019-04-21T22:01:52.539Z,11.07
2019-04-21T22:04:26.781Z,12.10
2019-04-21T22:07:00.361Z,10.90
2019-04-21T22:09:26.467Z,10.53
2019-04-21T22:12:00.833Z,11.03
2019-04-21T22:14:38.647Z,10.23
2019-04-21T22:17:17.490Z,10.37
2019-04-21T22:19:59.143Z,10.83
2019-04-21T22:22:21.550Z,8.93
2019-04-21T22:24:51.074Z,8.80
2019-04-21T22:27:10.313Z,10.83
2019-04-21T22:29:44.030Z,10.20
2019-04-21T22:32:18.804Z,11.37
2019-04-21T22:34:51.435Z,13.40
2019-04-21T22:37:35.245Z,12.27
2019-04-21T22:40:04.739Z,13.20
2019-04-21T22:42:29.464Z,12.90
2019-04-21T22:44:56.662Z,12.37
2019-04-21T22:47:33.787Z,11.47
2019-04-21T22:49:59.433Z,11.53
2019-04-21T22:52:31.993Z,10.90
2019-04-21T22:55:08.257Z,14.53
2019-04-21T22:57:40.794Z,13.30
2019-04-21T23:00:11.845Z,11.53
2019-04-21T23:02:44.137Z,10.80
2019-04-21T23:05:20.697Z,11.10
2019-04-21T23:07:51.184Z,10.27
2019-04-21T23:10:21.132Z,11.77
2019-04-21T23:12:52.212Z,9.67
2019-04-21T23:15:33.218Z,8.13
2019-04-21T23:18:11.965Z,8.57
2019-04-21T23:20:49.359Z,10.57
2019-04-21T23:23:25.020Z,8.53
2019-04-21T23:25:47.238Z,8.50
2019-04-21T23:28:22.212Z,8.60
2019-04-21T23:31:00.831Z,8.43
2019-04-21T23:33:14.292Z,10.40
2019-04-21T23:35:45.722Z,11.53
2019-04-21T23:38:14.736Z,10.20
2019-04-21T23:40:54.226Z,10.00
2019-04-21T23:43:23.864Z,11.37
2019-04-21T23:45:52.097Z,11.50
2019-04-21T23:48:35.413Z,9.63
2019-04-21T23:51:10.941Z,13.57
2019-04-21T23:53:27.163Z,10.57
2019-04-21T23:55:59.148Z,8.87
2019-04-21T23:58:32.817Z,8.30
